sensor_id;sensor_type;location;lat;lon;timestamp;P1;durP1;ratioP1;P2;durP2;ratioP2
69912;SDS011;57198;52.082;5.108;2022-10-16T00:02:17;2.63;;;2.28;;
69912;SDS011;57198;52.082;5.108;2022-10-16T00:04:45;3.73;;;2.20;;
69912;SDS011;57198;52.082;5.108;2022-10-16T00:07:12;3.00;;;2.10;;
69912;SDS011;57198;52.082;5.108;2022-10-16T00:09:39;2.70;;;2.05;;
69912;SDS011;57198;52.082;5.108;2022-10-16T00:12:06;5.47;;;1.90;;
69912;SDS011;57198;52.082;5.108;2022-10-16T00:14:34;4.25;;;1.90;;
69912;SDS011;57198;52.082;5.108;2022-10-16T00:17:01;2.60;;;2.10;;
69912;SDS011;57198;52.082;5.108;2022-10-16T00:19:28;2.63;;;1.63;;
69912;SDS011;57198;52.082;5.108;2022-10-16T00:21:56;4.13;;;1.92;;
69912;SDS011;57198;52.082;5.108;2022-10-16T00:24:23;4.57;;;1.90;;
69912;SDS011;57198;52.082;5.108;2022-10-16T00:26:50;3.97;;;1.90;;
69912;SDS011;57198;52.082;5.108;2022-10-16T00:29:17;4.67;;;2.37;;
69912;SDS011;57198;52.082;5.108;2022-10-16T00:31:45;2.55;;;1.90;;
69912;SDS011;57198;52.082;5.108;2022-10-16T00:34:12;4.72;;;2.00;;
69912;SDS011;57198;52.082;5.108;2022-10-16T00:36:39;3.63;;;2.00;;
69912;SDS011;57198;52.082;5.108;2022-10-16T00:39:06;4.00;;;2.97;;
69912;SDS011;57198;52.082;5.108;2022-10-16T00:41:34;8.63;;;2.80;;
69912;SDS011;57198;52.082;5.108;2022-10-16T00:44:02;3.20;;;2.13;;
69912;SDS011;57198;52.082;5.108;2022-10-16T00:46:40;4.72;;;2.30;;
69912;SDS011;57198;52.082;5.108;2022-10-16T00:49:10;2.55;;;2.35;;
69912;SDS011;57198;52.082;5.108;2022-10-16T00:51:38;6.47;;;2.10;;
69912;SDS011;57198;52.082;5.108;2022-10-16T00:54:16;2.73;;;2.17;;
69912;SDS011;57198;52.082;5.108;2022-10-16T00:56:44;3.20;;;1.90;;
69912;SDS011;57198;52.082;5.108;2022-10-16T00:59:18;3.10;;;2.13;;
69912;SDS011;57198;52.082;5.108;2022-10-16T01:01:45;4.60;;;2.75;;
69912;SDS011;57198;52.082;5.108;2022-10-16T01:04:13;4.13;;;2.40;;
69912;SDS011;57198;52.082;5.108;2022-10-16T01:11:45;4.00;;;2.60;;
69912;SDS011;57198;52.082;5.108;2022-10-16T01:14:20;4.07;;;2.35;;
69912;SDS011;57198;52.082;5.108;2022-10-16T01:17:10;4.00;;;2.72;;
69912;SDS011;57198;52.082;5.108;2022-10-16T01:22:33;2.70;;;2.25;;
69912;SDS011;57198;52.082;5.108;2022-10-16T01:25:01;3.65;;;2.63;;
69912;SDS011;57198;52.082;5.108;2022-10-16T01:27:32;5.25;;;2.70;;
69912;SDS011;57198;52.082;5.108;2022-10-16T01:30:07;5.47;;;2.88;;
69912;SDS011;57198;52.082;5.108;2022-10-16T01:32:40;4.73;;;2.83;;
69912;SDS011;57198;52.082;5.108;2022-10-16T01:35:14;5.65;;;2.33;;
69912;SDS011;57198;52.082;5.108;2022-10-16T01:37:49;4.65;;;2.67;;
69912;SDS011;57198;52.082;5.108;2022-10-16T01:40:19;3.55;;;3.10;;
69912;SDS011;57198;52.082;5.108;2022-10-16T01:42:52;6.72;;;2.53;;
69912;SDS011;57198;52.082;5.108;2022-10-16T01:45:20;4.37;;;2.40;;
69912;SDS011;57198;52.082;5.108;2022-10-16T01:47:48;2.90;;;2.55;;
69912;SDS011;57198;52.082;5.108;2022-10-16T01:50:16;5.07;;;2.78;;
69912;SDS011;57198;52.082;5.108;2022-10-16T01:52:46;3.25;;;2.40;;
69912;SDS011;57198;52.082;5.108;2022-10-16T01:55:17;2.58;;;2.38;;
69912;SDS011;57198;52.082;5.108;2022-10-16T01:57:45;4.70;;;2.63;;
69912;SDS011;57198;52.082;5.108;2022-10-16T02:00:14;6.18;;;2.60;;
69912;SDS011;57198;52.082;5.108;2022-10-16T02:02:45;4.20;;;2.33;;
69912;SDS011;57198;52.082;5.108;2022-10-16T02:05:16;4.00;;;2.30;;
69912;SDS011;57198;52.082;5.108;2022-10-16T02:07:45;4.32;;;2.30;;
69912;SDS011;57198;52.082;5.108;2022-10-16T02:10:12;4.60;;;2.80;;
69912;SDS011;57198;52.082;5.108;2022-10-16T02:12:40;2.80;;;2.60;;
69912;SDS011;57198;52.082;5.108;2022-10-16T02:15:09;2.63;;;2.42;;
69912;SDS011;57198;52.082;5.108;2022-10-16T02:17:36;4.70;;;2.55;;
69912;SDS011;57198;52.082;5.108;2022-10-16T02:20:03;5.03;;;2.80;;
69912;SDS011;57198;52.082;5.108;2022-10-16T02:22:36;3.20;;;2.33;;
69912;SDS011;57198;52.082;5.108;2022-10-16T02:30:27;6.05;;;3.15;;
69912;SDS011;57198;52.082;5.108;2022-10-16T02:32:56;4.95;;;2.67;;
69912;SDS011;57198;52.082;5.108;2022-10-16T02:35:24;2.80;;;2.60;;
69912;SDS011;57198;52.082;5.108;2022-10-16T02:37:53;6.03;;;2.45;;
69912;SDS011;57198;52.082;5.108;2022-10-16T02:40:21;4.63;;;2.58;;
69912;SDS011;57198;52.082;5.108;2022-10-16T02:42:51;3.10;;;2.72;;
69912;SDS011;57198;52.082;5.108;2022-10-16T02:45:19;4.75;;;2.70;;
69912;SDS011;57198;52.082;5.108;2022-10-16T02:47:46;4.03;;;2.40;;
69912;SDS011;57198;52.082;5.108;2022-10-16T02:50:13;4.78;;;2.80;;
69912;SDS011;57198;52.082;5.108;2022-10-16T02:52:41;2.38;;;2.17;;
69912;SDS011;57198;52.082;5.108;2022-10-16T02:55:08;4.00;;;2.60;;
69912;SDS011;57198;52.082;5.108;2022-10-16T02:57:35;2.50;;;2.30;;
69912;SDS011;57198;52.082;5.108;2022-10-16T03:00:06;4.83;;;2.30;;
69912;SDS011;57198;52.082;5.108;2022-10-16T03:02:34;3.25;;;2.80;;
69912;SDS011;57198;52.082;5.108;2022-10-16T03:05:02;3.70;;;2.75;;
69912;SDS011;57198;52.082;5.108;2022-10-16T03:07:29;3.20;;;2.70;;
69912;SDS011;57198;52.082;5.108;2022-10-16T03:09:56;4.00;;;2.80;;
69912;SDS011;57198;52.082;5.108;2022-10-16T03:12:27;3.00;;;2.70;;
69912;SDS011;57198;52.082;5.108;2022-10-16T03:14:57;6.45;;;2.55;;
69912;SDS011;57198;52.082;5.108;2022-10-16T03:17:25;3.10;;;2.35;;
69912;SDS011;57198;52.082;5.108;2022-10-16T03:19:52;2.72;;;2.08;;
69912;SDS011;57198;52.082;5.108;2022-10-16T03:22:20;4.78;;;2.10;;
69912;SDS011;57198;52.082;5.108;2022-10-16T03:24:47;3.07;;;2.10;;
69912;SDS011;57198;52.082;5.108;2022-10-16T03:27:14;2.65;;;1.80;;
69912;SDS011;57198;52.082;5.108;2022-10-16T03:29:41;2.65;;;1.95;;
69912;SDS011;57198;52.082;5.108;2022-10-16T03:32:09;5.57;;;2.45;;
69912;SDS011;57198;52.082;5.108;2022-10-16T03:34:36;4.72;;;2.50;;
69912;SDS011;57198;52.082;5.108;2022-10-16T03:37:03;3.30;;;2.10;;
69912;SDS011;57198;52.082;5.108;2022-10-16T03:39:31;2.95;;;2.00;;
69912;SDS011;57198;52.082;5.108;2022-10-16T03:41:58;3.75;;;2.10;;
69912;SDS011;57198;52.082;5.108;2022-10-16T03:44:25;2.78;;;2.30;;
69912;SDS011;57198;52.082;5.108;2022-10-16T03:46:52;2.10;;;1.92;;
69912;SDS011;57198;52.082;5.108;2022-10-16T03:49:20;3.10;;;2.47;;
69912;SDS011;57198;52.082;5.108;2022-10-16T03:51:47;2.33;;;2.10;;
69912;SDS011;57198;52.082;5.108;2022-10-16T03:54:14;3.78;;;1.95;;
69912;SDS011;57198;52.082;5.108;2022-10-16T03:56:41;4.32;;;1.90;;
69912;SDS011;57198;52.082;5.108;2022-10-16T03:59:09;2.10;;;2.00;;
69912;SDS011;57198;52.082;5.108;2022-10-16T04:01:36;2.57;;;2.10;;
69912;SDS011;57198;52.082;5.108;2022-10-16T04:04:03;3.65;;;1.65;;
69912;SDS011;57198;52.082;5.108;2022-10-16T04:06:30;2.40;;;2.20;;
69912;SDS011;57198;52.082;5.108;2022-10-16T04:08:58;2.42;;;2.15;;
69912;SDS011;57198;52.082;5.108;2022-10-16T04:11:25;6.28;;;2.35;;
69912;SDS011;57198;52.082;5.108;2022-10-16T04:13:52;2.73;;;2.43;;
69912;SDS011;57198;52.082;5.108;2022-10-16T04:16:20;4.95;;;2.22;;
69912;SDS011;57198;52.082;5.108;2022-10-16T04:18:47;4.53;;;2.17;;
69912;SDS011;57198;52.082;5.108;2022-10-16T04:21:14;1.92;;;1.83;;
69912;SDS011;57198;52.082;5.108;2022-10-16T04:23:42;4.28;;;2.85;;
69912;SDS011;57198;52.082;5.108;2022-10-16T04:26:09;2.60;;;2.30;;
69912;SDS011;57198;52.082;5.108;2022-10-16T04:28:36;2.35;;;2.15;;
69912;SDS011;57198;52.082;5.108;2022-10-16T04:31:04;2.45;;;2.00;;
69912;SDS011;57198;52.082;5.108;2022-10-16T04:33:32;2.08;;;1.98;;
69912;SDS011;57198;52.082;5.108;2022-10-16T04:36:00;5.50;;;2.40;;
69912;SDS011;57198;52.082;5.108;2022-10-16T04:38:28;5.37;;;2.30;;
69912;SDS011;57198;52.082;5.108;2022-10-16T04:40:55;3.92;;;2.22;;
69912;SDS011;57198;52.082;5.108;2022-10-16T04:43:23;5.03;;;2.47;;
69912;SDS011;57198;52.082;5.108;2022-10-16T04:45:50;3.03;;;1.95;;
69912;SDS011;57198;52.082;5.108;2022-10-16T04:48:17;5.20;;;1.90;;
69912;SDS011;57198;52.082;5.108;2022-10-16T04:50:45;3.93;;;2.20;;
69912;SDS011;57198;52.082;5.108;2022-10-16T04:53:20;2.13;;;1.77;;
69912;SDS011;57198;52.082;5.108;2022-10-16T04:55:47;2.65;;;2.45;;
69912;SDS011;57198;52.082;5.108;2022-10-16T04:58:15;3.10;;;1.98;;
69912;SDS011;57198;52.082;5.108;2022-10-16T05:00:42;4.57;;;2.00;;
69912;SDS011;57198;52.082;5.108;2022-10-16T05:03:09;2.63;;;1.80;;
69912;SDS011;57198;52.082;5.108;2022-10-16T05:05:36;2.90;;;2.08;;
69912;SDS011;57198;52.082;5.108;2022-10-16T05:08:09;3.80;;;2.25;;
69912;SDS011;57198;52.082;5.108;2022-10-16T05:10:36;4.05;;;1.92;;
69912;SDS011;57198;52.082;5.108;2022-10-16T05:13:04;2.42;;;2.13;;
69912;SDS011;57198;52.082;5.108;2022-10-16T05:15:31;3.50;;;2.10;;
69912;SDS011;57198;52.082;5.108;2022-10-16T05:17:59;2.22;;;2.00;;
69912;SDS011;57198;52.082;5.108;2022-10-16T05:20:26;3.13;;;2.00;;
69912;SDS011;57198;52.082;5.108;2022-10-16T05:22:54;3.58;;;2.20;;
69912;SDS011;57198;52.082;5.108;2022-10-16T05:25:21;3.67;;;1.70;;
69912;SDS011;57198;52.082;5.108;2022-10-16T05:27:48;4.43;;;2.17;;
69912;SDS011;57198;52.082;5.108;2022-10-16T05:30:16;1.83;;;1.73;;
69912;SDS011;57198;52.082;5.108;2022-10-16T05:32:47;3.92;;;2.20;;
69912;SDS011;57198;52.082;5.108;2022-10-16T05:35:15;4.35;;;2.03;;
69912;SDS011;57198;52.082;5.108;2022-10-16T05:37:43;3.83;;;2.50;;
69912;SDS011;57198;52.082;5.108;2022-10-16T05:40:10;6.63;;;2.23;;
69912;SDS011;57198;52.082;5.108;2022-10-16T05:42:39;2.85;;;2.55;;
69912;SDS011;57198;52.082;5.108;2022-10-16T05:45:07;4.40;;;2.15;;
69912;SDS011;57198;52.082;5.108;2022-10-16T05:47:35;3.03;;;2.60;;
69912;SDS011;57198;52.082;5.108;2022-10-16T05:50:03;3.95;;;2.15;;
69912;SDS011;57198;52.082;5.108;2022-10-16T05:52:30;5.60;;;2.20;;
69912;SDS011;57198;52.082;5.108;2022-10-16T05:54:57;2.60;;;2.40;;
69912;SDS011;57198;52.082;5.108;2022-10-16T05:57:24;3.60;;;2.25;;
69912;SDS011;57198;52.082;5.108;2022-10-16T05:59:52;3.00;;;2.67;;
69912;SDS011;57198;52.082;5.108;2022-10-16T06:02:19;4.88;;;2.40;;
69912;SDS011;57198;52.082;5.108;2022-10-16T06:04:47;3.97;;;2.00;;
69912;SDS011;57198;52.082;5.108;2022-10-16T06:07:14;3.58;;;2.42;;
69912;SDS011;57198;52.082;5.108;2022-10-16T06:09:41;4.72;;;2.70;;
69912;SDS011;57198;52.082;5.108;2022-10-16T06:12:09;3.72;;;2.17;;
69912;SDS011;57198;52.082;5.108;2022-10-16T06:14:36;2.72;;;2.30;;
69912;SDS011;57198;52.082;5.108;2022-10-16T06:17:03;2.83;;;2.40;;
69912;SDS011;57198;52.082;5.108;2022-10-16T06:19:31;3.50;;;2.72;;
69912;SDS011;57198;52.082;5.108;2022-10-16T06:21:58;3.45;;;2.40;;
69912;SDS011;57198;52.082;5.108;2022-10-16T06:24:26;3.45;;;2.30;;
69912;SDS011;57198;52.082;5.108;2022-10-16T06:26:53;6.07;;;3.10;;
69912;SDS011;57198;52.082;5.108;2022-10-16T06:29:20;5.03;;;2.33;;
69912;SDS011;57198;52.082;5.108;2022-10-16T06:31:48;8.30;;;2.50;;
69912;SDS011;57198;52.082;5.108;2022-10-16T06:34:15;1.95;;;1.75;;
69912;SDS011;57198;52.082;5.108;2022-10-16T06:36:42;4.05;;;2.88;;
69912;SDS011;57198;52.082;5.108;2022-10-16T06:39:09;3.30;;;2.28;;
69912;SDS011;57198;52.082;5.108;2022-10-16T06:41:37;2.90;;;2.07;;
69912;SDS011;57198;52.082;5.108;2022-10-16T06:44:24;3.10;;;2.63;;
69912;SDS011;57198;52.082;5.108;2022-10-16T06:46:52;3.90;;;2.40;;
69912;SDS011;57198;52.082;5.108;2022-10-16T06:49:20;3.53;;;1.85;;
69912;SDS011;57198;52.082;5.108;2022-10-16T06:51:48;5.28;;;2.72;;
69912;SDS011;57198;52.082;5.108;2022-10-16T06:54:16;4.70;;;1.60;;
69912;SDS011;57198;52.082;5.108;2022-10-16T06:56:44;4.05;;;1.80;;
69912;SDS011;57198;52.082;5.108;2022-10-16T06:59:11;7.95;;;2.05;;
69912;SDS011;57198;52.082;5.108;2022-10-16T07:01:38;2.80;;;2.00;;
69912;SDS011;57198;52.082;5.108;2022-10-16T07:04:06;3.38;;;1.60;;
69912;SDS011;57198;52.082;5.108;2022-10-16T07:06:33;3.23;;;2.13;;
69912;SDS011;57198;52.082;5.108;2022-10-16T07:09:02;3.95;;;2.53;;
69912;SDS011;57198;52.082;5.108;2022-10-16T07:11:30;3.55;;;2.05;;
69912;SDS011;57198;52.082;5.108;2022-10-16T07:13:57;4.05;;;2.28;;
69912;SDS011;57198;52.082;5.108;2022-10-16T07:16:25;4.43;;;1.77;;
69912;SDS011;57198;52.082;5.108;2022-10-16T07:18:56;4.60;;;2.47;;
69912;SDS011;57198;52.082;5.108;2022-10-16T07:21:27;3.28;;;1.42;;
69912;SDS011;57198;52.082;5.108;2022-10-16T07:23:59;6.40;;;1.85;;
69912;SDS011;57198;52.082;5.108;2022-10-16T07:26:28;3.33;;;1.33;;
69912;SDS011;57198;52.082;5.108;2022-10-16T07:28:56;2.30;;;1.55;;
69912;SDS011;57198;52.082;5.108;2022-10-16T07:31:23;3.40;;;2.30;;
69912;SDS011;57198;52.082;5.108;2022-10-16T07:33:51;4.95;;;1.83;;
69912;SDS011;57198;52.082;5.108;2022-10-16T07:36:19;3.22;;;2.33;;
69912;SDS011;57198;52.082;5.108;2022-10-16T07:38:46;3.03;;;1.98;;
69912;SDS011;57198;52.082;5.108;2022-10-16T07:41:14;3.40;;;2.10;;
69912;SDS011;57198;52.082;5.108;2022-10-16T07:43:46;4.70;;;1.80;;
69912;SDS011;57198;52.082;5.108;2022-10-16T07:46:13;4.43;;;2.25;;
69912;SDS011;57198;52.082;5.108;2022-10-16T07:48:41;3.90;;;2.10;;
69912;SDS011;57198;52.082;5.108;2022-10-16T07:51:12;2.50;;;2.30;;
69912;SDS011;57198;52.082;5.108;2022-10-16T07:53:40;8.02;;;2.75;;
69912;SDS011;57198;52.082;5.108;2022-10-16T07:56:07;3.73;;;2.50;;
69912;SDS011;57198;52.082;5.108;2022-10-16T07:58:35;4.68;;;2.00;;
69912;SDS011;57198;52.082;5.108;2022-10-16T08:01:06;7.13;;;2.67;;
69912;SDS011;57198;52.082;5.108;2022-10-16T08:03:34;5.60;;;2.90;;
69912;SDS011;57198;52.082;5.108;2022-10-16T08:06:01;6.72;;;2.55;;
69912;SDS011;57198;52.082;5.108;2022-10-16T08:08:29;5.00;;;2.57;;
69912;SDS011;57198;52.082;5.108;2022-10-16T08:10:57;3.45;;;2.58;;
69912;SDS011;57198;52.082;5.108;2022-10-16T08:13:25;3.45;;;2.25;;
69912;SDS011;57198;52.082;5.108;2022-10-16T08:15:53;3.58;;;2.53;;
69912;SDS011;57198;52.082;5.108;2022-10-16T08:18:21;4.60;;;2.35;;
69912;SDS011;57198;52.082;5.108;2022-10-16T08:20:54;3.83;;;1.40;;
69912;SDS011;57198;52.082;5.108;2022-10-16T08:23:22;3.80;;;2.38;;
69912;SDS011;57198;52.082;5.108;2022-10-16T08:25:49;6.32;;;2.20;;
69912;SDS011;57198;52.082;5.108;2022-10-16T08:28:16;5.50;;;2.00;;
69912;SDS011;57198;52.082;5.108;2022-10-16T08:30:43;4.47;;;1.95;;
69912;SDS011;57198;52.082;5.108;2022-10-16T08:33:11;4.63;;;2.30;;
69912;SDS011;57198;52.082;5.108;2022-10-16T08:35:38;6.15;;;1.95;;
69912;SDS011;57198;52.082;5.108;2022-10-16T08:38:06;6.10;;;2.17;;
69912;SDS011;57198;52.082;5.108;2022-10-16T08:40:34;5.28;;;2.08;;
69912;SDS011;57198;52.082;5.108;2022-10-16T08:43:12;4.18;;;1.85;;
69912;SDS011;57198;52.082;5.108;2022-10-16T08:48:17;8.23;;;2.53;;
69912;SDS011;57198;52.082;5.108;2022-10-16T08:50:47;5.30;;;1.95;;
69912;SDS011;57198;52.082;5.108;2022-10-16T08:53:20;4.20;;;1.95;;
69912;SDS011;57198;52.082;5.108;2022-10-16T08:55:50;4.10;;;2.47;;
69912;SDS011;57198;52.082;5.108;2022-10-16T08:58:20;6.20;;;2.23;;
69912;SDS011;57198;52.082;5.108;2022-10-16T09:00:53;3.00;;;2.40;;
69912;SDS011;57198;52.082;5.108;2022-10-16T09:03:28;5.28;;;2.80;;
69912;SDS011;57198;52.082;5.108;2022-10-16T09:06:16;6.07;;;2.80;;
69912;SDS011;57198;52.082;5.108;2022-10-16T09:11:43;5.10;;;2.83;;
69912;SDS011;57198;52.082;5.108;2022-10-16T09:16:53;4.18;;;2.22;;
69912;SDS011;57198;52.082;5.108;2022-10-16T09:19:34;3.55;;;1.40;;
69912;SDS011;57198;52.082;5.108;2022-10-16T09:22:14;3.85;;;1.20;;
69912;SDS011;57198;52.082;5.108;2022-10-16T09:24:42;6.17;;;2.13;;
69912;SDS011;57198;52.082;5.108;2022-10-16T09:27:13;4.93;;;1.30;;
69912;SDS011;57198;52.082;5.108;2022-10-16T09:29:41;4.10;;;1.25;;
69912;SDS011;57198;52.082;5.108;2022-10-16T09:32:12;3.75;;;1.80;;
69912;SDS011;57198;52.082;5.108;2022-10-16T09:34:42;5.43;;;1.95;;
69912;SDS011;57198;52.082;5.108;2022-10-16T09:37:13;5.47;;;1.50;;
69912;SDS011;57198;52.082;5.108;2022-10-16T09:39:43;2.83;;;1.98;;
69912;SDS011;57198;52.082;5.108;2022-10-16T09:42:14;4.70;;;1.50;;
69912;SDS011;57198;52.082;5.108;2022-10-16T09:44:41;4.82;;;2.03;;
69912;SDS011;57198;52.082;5.108;2022-10-16T09:47:16;6.97;;;1.60;;
69912;SDS011;57198;52.082;5.108;2022-10-16T09:49:56;5.93;;;1.50;;
69912;SDS011;57198;52.082;5.108;2022-10-16T09:52:25;7.68;;;2.10;;
69912;SDS011;57198;52.082;5.108;2022-10-16T09:57:21;4.95;;;1.77;;
69912;SDS011;57198;52.082;5.108;2022-10-16T09:59:51;6.65;;;1.70;;
69912;SDS011;57198;52.082;5.108;2022-10-16T10:02:19;7.00;;;2.10;;
69912;SDS011;57198;52.082;5.108;2022-10-16T10:04:53;10.50;;;1.90;;
69912;SDS011;57198;52.082;5.108;2022-10-16T10:07:24;4.45;;;1.42;;
69912;SDS011;57198;52.082;5.108;2022-10-16T10:09:53;5.82;;;1.83;;
69912;SDS011;57198;52.082;5.108;2022-10-16T10:12:23;7.00;;;1.80;;
69912;SDS011;57198;52.082;5.108;2022-10-16T10:14:53;5.40;;;1.90;;
69912;SDS011;57198;52.082;5.108;2022-10-16T10:17:23;7.45;;;1.83;;
69912;SDS011;57198;52.082;5.108;2022-10-16T10:19:56;6.38;;;1.50;;
69912;SDS011;57198;52.082;5.108;2022-10-16T10:22:29;8.98;;;1.65;;
69912;SDS011;57198;52.082;5.108;2022-10-16T10:30:19;6.47;;;1.75;;
69912;SDS011;57198;52.082;5.108;2022-10-16T10:33:34;6.95;;;2.00;;
69912;SDS011;57198;52.082;5.108;2022-10-16T10:35:42;7.03;;;2.10;;
69912;SDS011;57198;52.082;5.108;2022-10-16T10:40:52;9.87;;;1.90;;
69912;SDS011;57198;52.082;5.108;2022-10-16T10:43:38;8.82;;;1.50;;
69912;SDS011;57198;52.082;5.108;2022-10-16T10:46:09;7.40;;;1.48;;
69912;SDS011;57198;52.082;5.108;2022-10-16T10:51:20;7.53;;;2.00;;
69912;SDS011;57198;52.082;5.108;2022-10-16T10:53:59;7.60;;;1.60;;
69912;SDS011;57198;52.082;5.108;2022-10-16T11:02:00;9.95;;;2.30;;
69912;SDS011;57198;52.082;5.108;2022-10-16T11:04:44;9.07;;;2.35;;
69912;SDS011;57198;52.082;5.108;2022-10-16T11:07:15;10.30;;;2.10;;
69912;SDS011;57198;52.082;5.108;2022-10-16T11:09:46;6.93;;;1.33;;
69912;SDS011;57198;52.082;5.108;2022-10-16T11:12:18;5.20;;;1.55;;
69912;SDS011;57198;52.082;5.108;2022-10-16T11:14:58;6.47;;;1.90;;
69912;SDS011;57198;52.082;5.108;2022-10-16T11:17:35;9.70;;;1.95;;
69912;SDS011;57198;52.082;5.108;2022-10-16T11:25:24;5.75;;;1.27;;
69912;SDS011;57198;52.082;5.108;2022-10-16T11:30:57;5.90;;;1.30;;
69912;SDS011;57198;52.082;5.108;2022-10-16T11:33:37;7.47;;;2.27;;
69912;SDS011;57198;52.082;5.108;2022-10-16T11:36:18;5.65;;;1.90;;
69912;SDS011;57198;52.082;5.108;2022-10-16T11:39:03;6.78;;;2.08;;
69912;SDS011;57198;52.082;5.108;2022-10-16T11:46:32;6.57;;;1.53;;
69912;SDS011;57198;52.082;5.108;2022-10-16T11:49:22;5.53;;;1.42;;
69912;SDS011;57198;52.082;5.108;2022-10-16T11:56:51;8.05;;;2.22;;
69912;SDS011;57198;52.082;5.108;2022-10-16T11:59:27;3.83;;;1.80;;
69912;SDS011;57198;52.082;5.108;2022-10-16T12:04:39;5.15;;;1.48;;
69912;SDS011;57198;52.082;5.108;2022-10-16T12:07:12;5.40;;;2.10;;
69912;SDS011;57198;52.082;5.108;2022-10-16T12:09:41;6.20;;;1.88;;
69912;SDS011;57198;52.082;5.108;2022-10-16T12:15:15;8.40;;;1.98;;
69912;SDS011;57198;52.082;5.108;2022-10-16T12:18:07;5.55;;;1.70;;
69912;SDS011;57198;52.082;5.108;2022-10-16T12:20:35;8.13;;;1.80;;
69912;SDS011;57198;52.082;5.108;2022-10-16T12:23:04;8.25;;;1.95;;
69912;SDS011;57198;52.082;5.108;2022-10-16T12:25:36;5.97;;;1.33;;
69912;SDS011;57198;52.082;5.108;2022-10-16T12:28:17;5.63;;;1.60;;
69912;SDS011;57198;52.082;5.108;2022-10-16T12:30:59;9.02;;;2.10;;
69912;SDS011;57198;52.082;5.108;2022-10-16T12:33:31;6.68;;;1.55;;
69912;SDS011;57198;52.082;5.108;2022-10-16T12:35:59;6.75;;;1.58;;
69912;SDS011;57198;52.082;5.108;2022-10-16T12:38:29;7.77;;;1.70;;
69912;SDS011;57198;52.082;5.108;2022-10-16T12:41:02;10.32;;;2.10;;
69912;SDS011;57198;52.082;5.108;2022-10-16T12:46:05;4.03;;;1.95;;
69912;SDS011;57198;52.082;5.108;2022-10-16T12:48:47;7.50;;;1.90;;
69912;SDS011;57198;52.082;5.108;2022-10-16T12:54:03;10.32;;;2.30;;
69912;SDS011;57198;52.082;5.108;2022-10-16T13:04:22;9.43;;;2.47;;
69912;SDS011;57198;52.082;5.108;2022-10-16T13:09:27;6.60;;;1.50;;
69912;SDS011;57198;52.082;5.108;2022-10-16T13:30:00;8.10;;;1.67;;
69912;SDS011;57198;52.082;5.108;2022-10-16T13:32:27;6.82;;;1.70;;
69912;SDS011;57198;52.082;5.108;2022-10-16T13:34:56;8.18;;;1.67;;
69912;SDS011;57198;52.082;5.108;2022-10-16T13:37:24;10.40;;;1.98;;
69912;SDS011;57198;52.082;5.108;2022-10-16T13:40:18;8.35;;;2.05;;
69912;SDS011;57198;52.082;5.108;2022-10-16T13:42:46;9.63;;;1.73;;
69912;SDS011;57198;52.082;5.108;2022-10-16T13:45:17;8.20;;;1.77;;
69912;SDS011;57198;52.082;5.108;2022-10-16T13:47:45;7.50;;;1.40;;
69912;SDS011;57198;52.082;5.108;2022-10-16T13:50:13;8.02;;;1.73;;
69912;SDS011;57198;52.082;5.108;2022-10-16T13:52:40;9.57;;;1.75;;
69912;SDS011;57198;52.082;5.108;2022-10-16T13:55:12;7.20;;;1.40;;
69912;SDS011;57198;52.082;5.108;2022-10-16T13:57:39;6.45;;;1.90;;
69912;SDS011;57198;52.082;5.108;2022-10-16T14:00:17;7.13;;;1.30;;
69912;SDS011;57198;52.082;5.108;2022-10-16T14:02:45;5.85;;;1.50;;
69912;SDS011;57198;52.082;5.108;2022-10-16T14:05:16;6.30;;;1.70;;
69912;SDS011;57198;52.082;5.108;2022-10-16T14:07:43;8.40;;;2.00;;
69912;SDS011;57198;52.082;5.108;2022-10-16T14:10:26;7.57;;;2.53;;
69912;SDS011;57198;52.082;5.108;2022-10-16T14:13:04;5.63;;;1.73;;
69912;SDS011;57198;52.082;5.108;2022-10-16T14:15:34;8.45;;;1.73;;
69912;SDS011;57198;52.082;5.108;2022-10-16T14:18:02;10.88;;;2.00;;
69912;SDS011;57198;52.082;5.108;2022-10-16T14:20:30;5.67;;;1.47;;
69912;SDS011;57198;52.082;5.108;2022-10-16T14:23:02;10.55;;;1.90;;
69912;SDS011;57198;52.082;5.108;2022-10-16T14:25:31;6.25;;;1.85;;
69912;SDS011;57198;52.082;5.108;2022-10-16T14:30:27;8.00;;;2.15;;
69912;SDS011;57198;52.082;5.108;2022-10-16T14:32:59;6.50;;;1.90;;
69912;SDS011;57198;52.082;5.108;2022-10-16T14:37:57;6.97;;;1.80;;
69912;SDS011;57198;52.082;5.108;2022-10-16T14:40:27;5.78;;;1.90;;
69912;SDS011;57198;52.082;5.108;2022-10-16T14:42:55;9.57;;;1.98;;
69912;SDS011;57198;52.082;5.108;2022-10-16T14:45:24;9.47;;;2.20;;
69912;SDS011;57198;52.082;5.108;2022-10-16T14:47:54;10.70;;;2.13;;
69912;SDS011;57198;52.082;5.108;2022-10-16T14:50:21;9.38;;;2.22;;
69912;SDS011;57198;52.082;5.108;2022-10-16T14:52:49;6.10;;;1.80;;
69912;SDS011;57198;52.082;5.108;2022-10-16T14:55:16;5.93;;;1.75;;
69912;SDS011;57198;52.082;5.108;2022-10-16T14:57:45;8.00;;;2.10;;
69912;SDS011;57198;52.082;5.108;2022-10-16T15:02:43;10.00;;;2.00;;
69912;SDS011;57198;52.082;5.108;2022-10-16T15:05:12;12.48;;;2.00;;
69912;SDS011;57198;52.082;5.108;2022-10-16T15:07:40;12.10;;;2.05;;
69912;SDS011;57198;52.082;5.108;2022-10-16T15:10:07;10.10;;;2.33;;
69912;SDS011;57198;52.082;5.108;2022-10-16T15:12:34;8.07;;;1.70;;
69912;SDS011;57198;52.082;5.108;2022-10-16T15:15:08;6.45;;;1.88;;
69912;SDS011;57198;52.082;5.108;2022-10-16T15:17:42;9.82;;;1.98;;
69912;SDS011;57198;52.082;5.108;2022-10-16T15:20:09;7.70;;;2.20;;
69912;SDS011;57198;52.082;5.108;2022-10-16T15:22:36;8.60;;;1.73;;
69912;SDS011;57198;52.082;5.108;2022-10-16T15:25:09;7.70;;;2.30;;
69912;SDS011;57198;52.082;5.108;2022-10-16T15:27:42;6.20;;;1.70;;
69912;SDS011;57198;52.082;5.108;2022-10-16T15:30:10;7.35;;;1.70;;
69912;SDS011;57198;52.082;5.108;2022-10-16T15:32:37;8.40;;;1.58;;
69912;SDS011;57198;52.082;5.108;2022-10-16T15:35:07;7.20;;;1.60;;
69912;SDS011;57198;52.082;5.108;2022-10-16T15:37:35;8.52;;;2.00;;
69912;SDS011;57198;52.082;5.108;2022-10-16T15:40:02;9.90;;;1.73;;
69912;SDS011;57198;52.082;5.108;2022-10-16T15:42:30;9.02;;;2.10;;
69912;SDS011;57198;52.082;5.108;2022-10-16T15:44:57;6.15;;;1.60;;
69912;SDS011;57198;52.082;5.108;2022-10-16T15:47:24;10.90;;;2.83;;
69912;SDS011;57198;52.082;5.108;2022-10-16T15:49:52;9.80;;;2.20;;
69912;SDS011;57198;52.082;5.108;2022-10-16T15:52:19;10.10;;;2.08;;
69912;SDS011;57198;52.082;5.108;2022-10-16T15:54:46;10.18;;;2.10;;
69912;SDS011;57198;52.082;5.108;2022-10-16T15:57:20;7.95;;;1.90;;
69912;SDS011;57198;52.082;5.108;2022-10-16T15:59:47;11.17;;;2.23;;
69912;SDS011;57198;52.082;5.108;2022-10-16T16:02:14;10.05;;;2.70;;
69912;SDS011;57198;52.082;5.108;2022-10-16T16:04:42;5.63;;;2.17;;
69912;SDS011;57198;52.082;5.108;2022-10-16T16:07:10;6.93;;;2.20;;
69912;SDS011;57198;52.082;5.108;2022-10-16T16:09:37;7.78;;;2.20;;
69912;SDS011;57198;52.082;5.108;2022-10-16T16:12:05;7.60;;;1.97;;
69912;SDS011;57198;52.082;5.108;2022-10-16T16:14:32;10.65;;;2.90;;
69912;SDS011;57198;52.082;5.108;2022-10-16T16:17:00;6.80;;;2.45;;
69912;SDS011;57198;52.082;5.108;2022-10-16T16:19:28;9.85;;;2.70;;
69912;SDS011;57198;52.082;5.108;2022-10-16T16:21:56;8.00;;;2.60;;
69912;SDS011;57198;52.082;5.108;2022-10-16T16:24:24;7.87;;;2.57;;
69912;SDS011;57198;52.082;5.108;2022-10-16T16:26:51;8.00;;;2.42;;
69912;SDS011;57198;52.082;5.108;2022-10-16T16:29:18;10.15;;;2.85;;
69912;SDS011;57198;52.082;5.108;2022-10-16T16:31:46;10.65;;;2.90;;
69912;SDS011;57198;52.082;5.108;2022-10-16T16:34:13;12.55;;;3.58;;
69912;SDS011;57198;52.082;5.108;2022-10-16T16:36:41;13.90;;;3.63;;
69912;SDS011;57198;52.082;5.108;2022-10-16T16:39:08;8.43;;;2.80;;
69912;SDS011;57198;52.082;5.108;2022-10-16T16:41:36;8.95;;;2.80;;
69912;SDS011;57198;52.082;5.108;2022-10-16T16:44:04;13.32;;;2.90;;
69912;SDS011;57198;52.082;5.108;2022-10-16T16:46:33;9.05;;;2.55;;
69912;SDS011;57198;52.082;5.108;2022-10-16T16:49:00;9.73;;;3.03;;